Terminal Aerodrome Forecast
Issued by NWS

Home | Current Version | Previous Version | Text Only | Print | Product List | Glossary On
Versions: 1 2 3 4 5 6 7 8 9 10 11 12 13 14 15
000
FTUS42 KILM 020500
TAFCRE
TAF
KCRE 020526Z 0206/0306 22006KT P6SM FEW050 SCT100
      TEMPO 0210/0212 6SM BR
     FM021400 26009KT P6SM VCSH SCT020 SCT050 SCT120
     FM021900 21012KT P6SM VCSH SCT050
     FM030200 22010KT P6SM FEW050 FEW250=

USA.gov is the U.S. government's official web portal to all federal, state and local government web resources and services.